sensor_id;sensor_type;location;lat;lon;timestamp;P1;durP1;ratioP1;P2;durP2;ratioP2
50309;SDS011;36207;51.850;21.698;2024-03-08T00:01:13;108.90;;;47.40;;
50309;SDS011;36207;51.850;21.698;2024-03-08T00:03:44;104.40;;;46.50;;
50309;SDS011;36207;51.850;21.698;2024-03-08T00:06:10;105.50;;;47.20;;
50309;SDS011;36207;51.850;21.698;2024-03-08T00:08:36;109.80;;;48.50;;
50309;SDS011;36207;51.850;21.698;2024-03-08T00:11:02;110.40;;;50.20;;
50309;SDS011;36207;51.850;21.698;2024-03-08T00:13:28;111.40;;;49.70;;
50309;SDS011;36207;51.850;21.698;2024-03-08T00:15:54;110.90;;;49.50;;
50309;SDS011;36207;51.850;21.698;2024-03-08T00:18:23;124.10;;;53.20;;
50309;SDS011;36207;51.850;21.698;2024-03-08T00:20:48;116.40;;;52.00;;
50309;SDS011;36207;51.850;21.698;2024-03-08T00:23:14;112.60;;;51.00;;
50309;SDS011;36207;51.850;21.698;2024-03-08T00:25:41;121.70;;;51.30;;
50309;SDS011;36207;51.850;21.698;2024-03-08T00:28:07;120.70;;;51.20;;
50309;SDS011;36207;51.850;21.698;2024-03-08T00:30:33;118.90;;;52.80;;
50309;SDS011;36207;51.850;21.698;2024-03-08T00:32:58;116.60;;;52.80;;
50309;SDS011;36207;51.850;21.698;2024-03-08T00:35:25;124.40;;;54.00;;
50309;SDS011;36207;51.850;21.698;2024-03-08T00:37:51;123.80;;;53.50;;
50309;SDS011;36207;51.850;21.698;2024-03-08T00:40:17;127.90;;;55.00;;
50309;SDS011;36207;51.850;21.698;2024-03-08T00:42:43;122.80;;;52.80;;
50309;SDS011;36207;51.850;21.698;2024-03-08T00:45:09;116.80;;;51.00;;
50309;SDS011;36207;51.850;21.698;2024-03-08T00:47:36;123.10;;;52.00;;
50309;SDS011;36207;51.850;21.698;2024-03-08T00:50:02;121.50;;;50.90;;
50309;SDS011;36207;51.850;21.698;2024-03-08T00:52:31;110.00;;;49.50;;
50309;SDS011;36207;51.850;21.698;2024-03-08T00:54:57;117.10;;;51.30;;
50309;SDS011;36207;51.850;21.698;2024-03-08T00:57:23;118.20;;;51.80;;
50309;SDS011;36207;51.850;21.698;2024-03-08T00:59:49;111.60;;;48.90;;
50309;SDS011;36207;51.850;21.698;2024-03-08T01:02:15;115.80;;;49.90;;
50309;SDS011;36207;51.850;21.698;2024-03-08T01:04:44;110.50;;;48.90;;
50309;SDS011;36207;51.850;21.698;2024-03-08T01:07:10;107.00;;;48.60;;
50309;SDS011;36207;51.850;21.698;2024-03-08T01:09:36;111.40;;;49.20;;
50309;SDS011;36207;51.850;21.698;2024-03-08T01:12:02;107.60;;;48.70;;
50309;SDS011;36207;51.850;21.698;2024-03-08T01:14:28;105.70;;;47.70;;
50309;SDS011;36207;51.850;21.698;2024-03-08T01:16:57;98.90;;;47.40;;
50309;SDS011;36207;51.850;21.698;2024-03-08T01:19:22;97.10;;;47.80;;
50309;SDS011;36207;51.850;21.698;2024-03-08T01:21:49;103.60;;;48.50;;
50309;SDS011;36207;51.850;21.698;2024-03-08T01:24:15;100.30;;;48.70;;
50309;SDS011;36207;51.850;21.698;2024-03-08T01:26:41;103.10;;;49.60;;
50309;SDS011;36207;51.850;21.698;2024-03-08T01:29:07;107.60;;;48.00;;
50309;SDS011;36207;51.850;21.698;2024-03-08T01:31:33;104.00;;;48.30;;
50309;SDS011;36207;51.850;21.698;2024-03-08T01:33:59;104.00;;;48.10;;
50309;SDS011;36207;51.850;21.698;2024-03-08T01:36:25;97.60;;;47.20;;
50309;SDS011;36207;51.850;21.698;2024-03-08T01:38:51;92.20;;;45.00;;
50309;SDS011;36207;51.850;21.698;2024-03-08T01:41:18;99.60;;;47.00;;
50309;SDS011;36207;51.850;21.698;2024-03-08T01:43:44;96.00;;;46.10;;
50309;SDS011;36207;51.850;21.698;2024-03-08T01:46:10;104.60;;;48.20;;
50309;SDS011;36207;51.850;21.698;2024-03-08T01:48:40;99.50;;;46.00;;
50309;SDS011;36207;51.850;21.698;2024-03-08T01:51:07;95.30;;;45.60;;
50309;SDS011;36207;51.850;21.698;2024-03-08T01:53:33;96.10;;;47.00;;
50309;SDS011;36207;51.850;21.698;2024-03-08T01:56:01;95.10;;;46.00;;
50309;SDS011;36207;51.850;21.698;2024-03-08T01:58:31;98.30;;;46.90;;
50309;SDS011;36207;51.850;21.698;2024-03-08T02:00:58;107.20;;;47.60;;
50309;SDS011;36207;51.850;21.698;2024-03-08T02:03:25;104.50;;;48.30;;
50309;SDS011;36207;51.850;21.698;2024-03-08T02:05:52;108.50;;;48.20;;
50309;SDS011;36207;51.850;21.698;2024-03-08T02:08:18;102.30;;;47.80;;
50309;SDS011;36207;51.850;21.698;2024-03-08T02:10:48;110.30;;;49.10;;
50309;SDS011;36207;51.850;21.698;2024-03-08T02:13:14;113.20;;;48.70;;
50309;SDS011;36207;51.850;21.698;2024-03-08T02:15:59;113.10;;;50.00;;
50309;SDS011;36207;51.850;21.698;2024-03-08T02:18:26;125.00;;;50.70;;
50309;SDS011;36207;51.850;21.698;2024-03-08T02:20:54;121.10;;;51.30;;
50309;SDS011;36207;51.850;21.698;2024-03-08T02:23:21;123.40;;;51.50;;
50309;SDS011;36207;51.850;21.698;2024-03-08T02:25:48;122.20;;;52.70;;
50309;SDS011;36207;51.850;21.698;2024-03-08T02:28:15;121.50;;;51.40;;
50309;SDS011;36207;51.850;21.698;2024-03-08T02:30:44;124.90;;;50.90;;
50309;SDS011;36207;51.850;21.698;2024-03-08T02:33:17;113.80;;;50.80;;
50309;SDS011;36207;51.850;21.698;2024-03-08T02:35:44;124.80;;;53.30;;
50309;SDS011;36207;51.850;21.698;2024-03-08T02:38:12;115.60;;;51.10;;
50309;SDS011;36207;51.850;21.698;2024-03-08T02:40:48;115.20;;;49.20;;
50309;SDS011;36207;51.850;21.698;2024-03-08T02:43:16;115.20;;;50.80;;
50309;SDS011;36207;51.850;21.698;2024-03-08T02:45:43;109.70;;;51.10;;
50309;SDS011;36207;51.850;21.698;2024-03-08T02:48:09;112.60;;;49.00;;
50309;SDS011;36207;51.850;21.698;2024-03-08T02:50:36;109.60;;;49.10;;
50309;SDS011;36207;51.850;21.698;2024-03-08T02:53:03;114.30;;;51.60;;
50309;SDS011;36207;51.850;21.698;2024-03-08T02:55:30;108.10;;;49.30;;
50309;SDS011;36207;51.850;21.698;2024-03-08T02:57:56;109.50;;;50.30;;
50309;SDS011;36207;51.850;21.698;2024-03-08T03:00:22;112.10;;;49.00;;
50309;SDS011;36207;51.850;21.698;2024-03-08T03:02:50;116.10;;;50.30;;
50309;SDS011;36207;51.850;21.698;2024-03-08T03:05:25;113.30;;;50.10;;
50309;SDS011;36207;51.850;21.698;2024-03-08T03:07:51;116.80;;;52.20;;
50309;SDS011;36207;51.850;21.698;2024-03-08T03:10:18;124.70;;;53.40;;
50309;SDS011;36207;51.850;21.698;2024-03-08T03:12:47;132.00;;;56.70;;
50309;SDS011;36207;51.850;21.698;2024-03-08T03:15:14;118.30;;;54.40;;
50309;SDS011;36207;51.850;21.698;2024-03-08T03:17:48;120.90;;;53.60;;
50309;SDS011;36207;51.850;21.698;2024-03-08T03:20:18;121.60;;;54.10;;
50309;SDS011;36207;51.850;21.698;2024-03-08T03:23:06;124.70;;;54.70;;
50309;SDS011;36207;51.850;21.698;2024-03-08T03:25:34;114.10;;;52.90;;
50309;SDS011;36207;51.850;21.698;2024-03-08T03:28:01;130.10;;;55.70;;
50309;SDS011;36207;51.850;21.698;2024-03-08T03:30:28;133.70;;;56.30;;
50309;SDS011;36207;51.850;21.698;2024-03-08T03:33:01;122.40;;;52.70;;
50309;SDS011;36207;51.850;21.698;2024-03-08T03:37:58;108.40;;;50.60;;
50309;SDS011;36207;51.850;21.698;2024-03-08T03:40:32;99.80;;;47.80;;
50309;SDS011;36207;51.850;21.698;2024-03-08T03:43:04;94.00;;;45.90;;
50309;SDS011;36207;51.850;21.698;2024-03-08T03:45:30;89.40;;;45.20;;
50309;SDS011;36207;51.850;21.698;2024-03-08T03:48:01;92.10;;;45.60;;
50309;SDS011;36207;51.850;21.698;2024-03-08T03:50:28;97.40;;;45.20;;
50309;SDS011;36207;51.850;21.698;2024-03-08T03:52:54;94.70;;;44.00;;
50309;SDS011;36207;51.850;21.698;2024-03-08T03:55:20;102.00;;;47.30;;
50309;SDS011;36207;51.850;21.698;2024-03-08T03:57:47;101.80;;;46.80;;
50309;SDS011;36207;51.850;21.698;2024-03-08T04:00:13;96.50;;;45.50;;
50309;SDS011;36207;51.850;21.698;2024-03-08T04:02:39;95.60;;;47.30;;
50309;SDS011;36207;51.850;21.698;2024-03-08T04:05:07;105.30;;;48.00;;
50309;SDS011;36207;51.850;21.698;2024-03-08T04:07:34;94.30;;;43.50;;
50309;SDS011;36207;51.850;21.698;2024-03-08T04:10:02;101.10;;;46.50;;
50309;SDS011;36207;51.850;21.698;2024-03-08T04:12:28;101.90;;;46.90;;
50309;SDS011;36207;51.850;21.698;2024-03-08T04:14:55;107.60;;;48.50;;
50309;SDS011;36207;51.850;21.698;2024-03-08T04:17:22;94.10;;;43.80;;
50309;SDS011;36207;51.850;21.698;2024-03-08T04:19:49;97.10;;;46.90;;
50309;SDS011;36207;51.850;21.698;2024-03-08T04:22:16;96.60;;;46.00;;
50309;SDS011;36207;51.850;21.698;2024-03-08T04:24:45;101.60;;;46.10;;
50309;SDS011;36207;51.850;21.698;2024-03-08T04:27:12;98.00;;;47.10;;
50309;SDS011;36207;51.850;21.698;2024-03-08T04:29:38;102.30;;;47.30;;
50309;SDS011;36207;51.850;21.698;2024-03-08T04:32:04;97.00;;;47.20;;
50309;SDS011;36207;51.850;21.698;2024-03-08T04:34:32;105.20;;;48.40;;
50309;SDS011;36207;51.850;21.698;2024-03-08T04:37:00;104.90;;;48.70;;
50309;SDS011;36207;51.850;21.698;2024-03-08T04:39:27;101.80;;;46.40;;
50309;SDS011;36207;51.850;21.698;2024-03-08T04:41:55;101.70;;;46.50;;
50309;SDS011;36207;51.850;21.698;2024-03-08T04:44:23;107.70;;;46.30;;
50309;SDS011;36207;51.850;21.698;2024-03-08T04:46:50;108.20;;;48.40;;
50309;SDS011;36207;51.850;21.698;2024-03-08T04:49:16;101.50;;;47.50;;
50309;SDS011;36207;51.850;21.698;2024-03-08T04:51:42;103.40;;;46.20;;
50309;SDS011;36207;51.850;21.698;2024-03-08T04:54:08;99.30;;;45.40;;
50309;SDS011;36207;51.850;21.698;2024-03-08T04:56:34;98.40;;;46.50;;
50309;SDS011;36207;51.850;21.698;2024-03-08T04:59:00;97.60;;;46.00;;
50309;SDS011;36207;51.850;21.698;2024-03-08T05:01:26;95.30;;;45.60;;
50309;SDS011;36207;51.850;21.698;2024-03-08T05:03:51;98.30;;;46.10;;
50309;SDS011;36207;51.850;21.698;2024-03-08T05:06:20;91.10;;;45.00;;
50309;SDS011;36207;51.850;21.698;2024-03-08T05:08:46;96.40;;;44.80;;
50309;SDS011;36207;51.850;21.698;2024-03-08T05:11:12;95.10;;;47.30;;
50309;SDS011;36207;51.850;21.698;2024-03-08T05:13:40;94.00;;;45.50;;
50309;SDS011;36207;51.850;21.698;2024-03-08T05:16:06;89.30;;;42.90;;
50309;SDS011;36207;51.850;21.698;2024-03-08T05:18:33;87.50;;;44.20;;
50309;SDS011;36207;51.850;21.698;2024-03-08T05:21:01;93.30;;;46.60;;
50309;SDS011;36207;51.850;21.698;2024-03-08T05:23:30;87.80;;;45.30;;
50309;SDS011;36207;51.850;21.698;2024-03-08T05:25:56;87.50;;;44.10;;
50309;SDS011;36207;51.850;21.698;2024-03-08T05:28:22;79.90;;;42.50;;
50309;SDS011;36207;51.850;21.698;2024-03-08T05:30:48;92.70;;;44.50;;
50309;SDS011;36207;51.850;21.698;2024-03-08T05:33:14;84.60;;;43.50;;
50309;SDS011;36207;51.850;21.698;2024-03-08T05:35:40;86.80;;;43.30;;
50309;SDS011;36207;51.850;21.698;2024-03-08T05:38:06;88.90;;;44.10;;
50309;SDS011;36207;51.850;21.698;2024-03-08T05:40:32;83.40;;;43.30;;
50309;SDS011;36207;51.850;21.698;2024-03-08T05:42:58;85.30;;;43.70;;
50309;SDS011;36207;51.850;21.698;2024-03-08T05:45:25;85.10;;;42.40;;
50309;SDS011;36207;51.850;21.698;2024-03-08T05:47:51;82.20;;;42.70;;
50309;SDS011;36207;51.850;21.698;2024-03-08T05:50:18;89.30;;;45.50;;
50309;SDS011;36207;51.850;21.698;2024-03-08T05:52:45;82.10;;;44.10;;
50309;SDS011;36207;51.850;21.698;2024-03-08T05:55:13;79.60;;;42.10;;
50309;SDS011;36207;51.850;21.698;2024-03-08T05:57:40;82.40;;;42.20;;
50309;SDS011;36207;51.850;21.698;2024-03-08T06:00:08;82.70;;;43.00;;
50309;SDS011;36207;51.850;21.698;2024-03-08T06:02:38;85.40;;;43.40;;
50309;SDS011;36207;51.850;21.698;2024-03-08T06:05:09;79.20;;;39.80;;
50309;SDS011;36207;51.850;21.698;2024-03-08T06:07:36;81.40;;;42.00;;
50309;SDS011;36207;51.850;21.698;2024-03-08T06:10:09;80.90;;;43.00;;
50309;SDS011;36207;51.850;21.698;2024-03-08T06:12:36;80.60;;;42.10;;
50309;SDS011;36207;51.850;21.698;2024-03-08T06:15:08;82.00;;;42.00;;
50309;SDS011;36207;51.850;21.698;2024-03-08T06:17:35;83.30;;;42.20;;
50309;SDS011;36207;51.850;21.698;2024-03-08T06:20:02;82.50;;;42.10;;
50309;SDS011;36207;51.850;21.698;2024-03-08T06:22:29;82.00;;;43.70;;
50309;SDS011;36207;51.850;21.698;2024-03-08T06:24:56;82.40;;;43.00;;
50309;SDS011;36207;51.850;21.698;2024-03-08T06:27:22;83.20;;;42.20;;
50309;SDS011;36207;51.850;21.698;2024-03-08T06:29:48;84.60;;;42.90;;
50309;SDS011;36207;51.850;21.698;2024-03-08T06:32:14;88.40;;;43.80;;
50309;SDS011;36207;51.850;21.698;2024-03-08T06:34:41;82.30;;;43.50;;
50309;SDS011;36207;51.850;21.698;2024-03-08T06:37:07;86.00;;;45.00;;
50309;SDS011;36207;51.850;21.698;2024-03-08T06:39:32;83.90;;;43.30;;
50309;SDS011;36207;51.850;21.698;2024-03-08T06:41:59;83.30;;;44.40;;
50309;SDS011;36207;51.850;21.698;2024-03-08T06:44:25;85.10;;;44.50;;
50309;SDS011;36207;51.850;21.698;2024-03-08T06:46:52;83.40;;;44.50;;
50309;SDS011;36207;51.850;21.698;2024-03-08T06:49:18;84.20;;;46.20;;
50309;SDS011;36207;51.850;21.698;2024-03-08T06:51:45;86.30;;;45.50;;
50309;SDS011;36207;51.850;21.698;2024-03-08T06:54:10;88.30;;;44.70;;
50309;SDS011;36207;51.850;21.698;2024-03-08T06:56:37;95.10;;;45.90;;
50309;SDS011;36207;51.850;21.698;2024-03-08T06:59:03;88.00;;;46.10;;
50309;SDS011;36207;51.850;21.698;2024-03-08T07:01:29;88.60;;;46.20;;
50309;SDS011;36207;51.850;21.698;2024-03-08T07:03:59;84.90;;;45.20;;
50309;SDS011;36207;51.850;21.698;2024-03-08T07:06:27;96.70;;;48.30;;
50309;SDS011;36207;51.850;21.698;2024-03-08T07:08:54;86.20;;;45.60;;
50309;SDS011;36207;51.850;21.698;2024-03-08T07:11:20;91.60;;;47.10;;
50309;SDS011;36207;51.850;21.698;2024-03-08T07:13:47;88.00;;;46.80;;
50309;SDS011;36207;51.850;21.698;2024-03-08T07:16:13;86.40;;;46.30;;
50309;SDS011;36207;51.850;21.698;2024-03-08T07:18:39;85.50;;;45.80;;
50309;SDS011;36207;51.850;21.698;2024-03-08T07:21:09;94.60;;;48.90;;
50309;SDS011;36207;51.850;21.698;2024-03-08T07:23:38;92.00;;;48.30;;
50309;SDS011;36207;51.850;21.698;2024-03-08T07:26:28;95.90;;;49.40;;
50309;SDS011;36207;51.850;21.698;2024-03-08T07:28:56;94.10;;;47.50;;
50309;SDS011;36207;51.850;21.698;2024-03-08T07:31:23;80.70;;;42.90;;
50309;SDS011;36207;51.850;21.698;2024-03-08T07:33:52;84.80;;;43.90;;
50309;SDS011;36207;51.850;21.698;2024-03-08T07:36:19;83.90;;;43.80;;
50309;SDS011;36207;51.850;21.698;2024-03-08T07:38:45;78.20;;;41.30;;
50309;SDS011;36207;51.850;21.698;2024-03-08T07:41:14;78.50;;;42.50;;
50309;SDS011;36207;51.850;21.698;2024-03-08T07:43:42;73.20;;;41.40;;
50309;SDS011;36207;51.850;21.698;2024-03-08T07:46:09;82.60;;;43.20;;
50309;SDS011;36207;51.850;21.698;2024-03-08T07:48:36;81.50;;;43.10;;
50309;SDS011;36207;51.850;21.698;2024-03-08T07:51:05;77.50;;;42.20;;
50309;SDS011;36207;51.850;21.698;2024-03-08T07:53:31;80.10;;;43.60;;
50309;SDS011;36207;51.850;21.698;2024-03-08T07:55:57;84.30;;;43.40;;
50309;SDS011;36207;51.850;21.698;2024-03-08T07:58:23;82.40;;;41.40;;
50309;SDS011;36207;51.850;21.698;2024-03-08T08:00:49;82.10;;;42.20;;
50309;SDS011;36207;51.850;21.698;2024-03-08T08:03:15;81.40;;;41.50;;
50309;SDS011;36207;51.850;21.698;2024-03-08T08:05:42;77.60;;;41.40;;
50309;SDS011;36207;51.850;21.698;2024-03-08T08:08:08;78.30;;;41.40;;
50309;SDS011;36207;51.850;21.698;2024-03-08T08:10:36;69.90;;;39.90;;
50309;SDS011;36207;51.850;21.698;2024-03-08T08:13:02;66.80;;;37.80;;
50309;SDS011;36207;51.850;21.698;2024-03-08T08:15:30;64.50;;;36.30;;
50309;SDS011;36207;51.850;21.698;2024-03-08T08:17:56;59.00;;;33.90;;
50309;SDS011;36207;51.850;21.698;2024-03-08T08:20:22;59.30;;;34.50;;
50309;SDS011;36207;51.850;21.698;2024-03-08T08:22:48;58.60;;;34.30;;
50309;SDS011;36207;51.850;21.698;2024-03-08T08:25:14;56.10;;;32.70;;
50309;SDS011;36207;51.850;21.698;2024-03-08T08:27:41;51.70;;;30.40;;
50309;SDS011;36207;51.850;21.698;2024-03-08T08:30:10;50.50;;;30.60;;
50309;SDS011;36207;51.850;21.698;2024-03-08T08:32:37;49.90;;;28.40;;
50309;SDS011;36207;51.850;21.698;2024-03-08T08:35:08;47.40;;;27.90;;
50309;SDS011;36207;51.850;21.698;2024-03-08T08:37:34;43.00;;;25.80;;
50309;SDS011;36207;51.850;21.698;2024-03-08T08:40:02;44.30;;;25.90;;
50309;SDS011;36207;51.850;21.698;2024-03-08T08:42:36;44.70;;;26.40;;
50309;SDS011;36207;51.850;21.698;2024-03-08T08:45:03;43.60;;;25.80;;
50309;SDS011;36207;51.850;21.698;2024-03-08T08:47:34;38.90;;;21.90;;
50309;SDS011;36207;51.850;21.698;2024-03-08T08:50:01;40.00;;;22.20;;
50309;SDS011;36207;51.850;21.698;2024-03-08T08:52:27;31.10;;;20.10;;
50309;SDS011;36207;51.850;21.698;2024-03-08T08:54:54;34.30;;;21.40;;
50309;SDS011;36207;51.850;21.698;2024-03-08T08:57:20;35.80;;;21.80;;
50309;SDS011;36207;51.850;21.698;2024-03-08T08:59:46;35.40;;;21.10;;
50309;SDS011;36207;51.850;21.698;2024-03-08T09:02:12;36.50;;;20.90;;
50309;SDS011;36207;51.850;21.698;2024-03-08T09:04:38;32.00;;;19.90;;
50309;SDS011;36207;51.850;21.698;2024-03-08T09:07:04;30.00;;;18.70;;
50309;SDS011;36207;51.850;21.698;2024-03-08T09:09:32;30.60;;;17.60;;
50309;SDS011;36207;51.850;21.698;2024-03-08T09:11:58;32.40;;;18.90;;
50309;SDS011;36207;51.850;21.698;2024-03-08T09:14:24;29.90;;;18.40;;
50309;SDS011;36207;51.850;21.698;2024-03-08T09:16:51;29.90;;;18.50;;
50309;SDS011;36207;51.850;21.698;2024-03-08T09:19:18;27.40;;;17.30;;
50309;SDS011;36207;51.850;21.698;2024-03-08T09:21:45;27.60;;;16.60;;
50309;SDS011;36207;51.850;21.698;2024-03-08T09:24:11;27.40;;;17.30;;
50309;SDS011;36207;51.850;21.698;2024-03-08T09:26:38;25.90;;;16.50;;
50309;SDS011;36207;51.850;21.698;2024-03-08T09:29:06;25.70;;;16.00;;
50309;SDS011;36207;51.850;21.698;2024-03-08T09:31:32;24.40;;;15.20;;
50309;SDS011;36207;51.850;21.698;2024-03-08T09:33:58;24.80;;;15.40;;
50309;SDS011;36207;51.850;21.698;2024-03-08T09:36:24;25.00;;;15.30;;
50309;SDS011;36207;51.850;21.698;2024-03-08T09:38:50;24.20;;;15.60;;
50309;SDS011;36207;51.850;21.698;2024-03-08T09:41:16;24.20;;;15.20;;
50309;SDS011;36207;51.850;21.698;2024-03-08T09:43:42;25.40;;;15.00;;
50309;SDS011;36207;51.850;21.698;2024-03-08T09:46:09;27.30;;;14.90;;
50309;SDS011;36207;51.850;21.698;2024-03-08T09:48:36;25.20;;;15.40;;
50309;SDS011;36207;51.850;21.698;2024-03-08T09:51:03;20.90;;;13.90;;
50309;SDS011;36207;51.850;21.698;2024-03-08T09:53:30;22.10;;;13.90;;
50309;SDS011;36207;51.850;21.698;2024-03-08T09:55:56;22.50;;;14.10;;
50309;SDS011;36207;51.850;21.698;2024-03-08T09:58:22;19.80;;;12.20;;
50309;SDS011;36207;51.850;21.698;2024-03-08T10:01:00;19.20;;;12.50;;
50309;SDS011;36207;51.850;21.698;2024-03-08T10:03:29;25.40;;;14.10;;
50309;SDS011;36207;51.850;21.698;2024-03-08T10:05:56;23.40;;;14.70;;
50309;SDS011;36207;51.850;21.698;2024-03-08T10:08:26;21.80;;;14.10;;
50309;SDS011;36207;51.850;21.698;2024-03-08T10:10:55;22.30;;;14.00;;
50309;SDS011;36207;51.850;21.698;2024-03-08T10:13:24;21.50;;;13.40;;
50309;SDS011;36207;51.850;21.698;2024-03-08T10:15:53;22.10;;;13.80;;
50309;SDS011;36207;51.850;21.698;2024-03-08T10:18:19;24.10;;;14.20;;
50309;SDS011;36207;51.850;21.698;2024-03-08T10:21:01;20.60;;;13.10;;
50309;SDS011;36207;51.850;21.698;2024-03-08T10:23:31;21.90;;;12.10;;
50309;SDS011;36207;51.850;21.698;2024-03-08T10:26:11;18.10;;;11.80;;
50309;SDS011;36207;51.850;21.698;2024-03-08T10:28:45;19.40;;;12.80;;
50309;SDS011;36207;51.850;21.698;2024-03-08T10:31:15;19.40;;;12.60;;
50309;SDS011;36207;51.850;21.698;2024-03-08T10:33:42;18.60;;;12.40;;
50309;SDS011;36207;51.850;21.698;2024-03-08T10:36:10;19.10;;;11.80;;
50309;SDS011;36207;51.850;21.698;2024-03-08T10:38:38;20.10;;;12.80;;
50309;SDS011;36207;51.850;21.698;2024-03-08T10:41:06;21.00;;;12.60;;
50309;SDS011;36207;51.850;21.698;2024-03-08T10:43:36;17.80;;;12.20;;
50309;SDS011;36207;51.850;21.698;2024-03-08T10:51:44;17.90;;;11.40;;
50309;SDS011;36207;51.850;21.698;2024-03-08T10:54:12;18.10;;;10.80;;
50309;SDS011;36207;51.850;21.698;2024-03-08T10:56:41;19.30;;;10.70;;
50309;SDS011;36207;51.850;21.698;2024-03-08T10:59:08;15.00;;;10.30;;
50309;SDS011;36207;51.850;21.698;2024-03-08T11:01:34;20.70;;;12.50;;
50309;SDS011;36207;51.850;21.698;2024-03-08T11:04:00;19.90;;;12.70;;
50309;SDS011;36207;51.850;21.698;2024-03-08T11:09:02;19.70;;;12.10;;
50309;SDS011;36207;51.850;21.698;2024-03-08T11:11:32;17.60;;;11.80;;
50309;SDS011;36207;51.850;21.698;2024-03-08T11:14:03;19.30;;;12.10;;
50309;SDS011;36207;51.850;21.698;2024-03-08T11:19:00;18.60;;;12.40;;
50309;SDS011;36207;51.850;21.698;2024-03-08T11:21:59;18.60;;;11.40;;
50309;SDS011;36207;51.850;21.698;2024-03-08T11:24:26;18.50;;;11.60;;
50309;SDS011;36207;51.850;21.698;2024-03-08T11:26:58;19.90;;;12.10;;
50309;SDS011;36207;51.850;21.698;2024-03-08T11:32:04;21.20;;;12.60;;
50309;SDS011;36207;51.850;21.698;2024-03-08T11:34:41;19.40;;;13.00;;
50309;SDS011;36207;51.850;21.698;2024-03-08T11:37:14;19.50;;;12.10;;
50309;SDS011;36207;51.850;21.698;2024-03-08T11:39:49;20.40;;;12.50;;
50309;SDS011;36207;51.850;21.698;2024-03-08T11:44:44;19.00;;;12.30;;
50309;SDS011;36207;51.850;21.698;2024-03-08T11:47:13;19.60;;;12.40;;
50309;SDS011;36207;51.850;21.698;2024-03-08T11:49:40;18.70;;;11.60;;
50309;SDS011;36207;51.850;21.698;2024-03-08T11:52:10;19.10;;;12.40;;
50309;SDS011;36207;51.850;21.698;2024-03-08T11:54:53;20.90;;;12.80;;
50309;SDS011;36207;51.850;21.698;2024-03-08T11:57:23;19.10;;;12.40;;
50309;SDS011;36207;51.850;21.698;2024-03-08T11:59:50;20.80;;;12.40;;
50309;SDS011;36207;51.850;21.698;2024-03-08T12:02:17;19.40;;;12.40;;
50309;SDS011;36207;51.850;21.698;2024-03-08T12:04:45;18.50;;;12.30;;
50309;SDS011;36207;51.850;21.698;2024-03-08T12:07:14;19.30;;;12.70;;
50309;SDS011;36207;51.850;21.698;2024-03-08T12:09:44;21.70;;;12.70;;
50309;SDS011;36207;51.850;21.698;2024-03-08T12:12:46;19.60;;;12.40;;
50309;SDS011;36207;51.850;21.698;2024-03-08T12:15:14;19.90;;;12.40;;
50309;SDS011;36207;51.850;21.698;2024-03-08T12:17:41;22.00;;;12.30;;
50309;SDS011;36207;51.850;21.698;2024-03-08T12:20:14;21.50;;;13.60;;
50309;SDS011;36207;51.850;21.698;2024-03-08T12:23:01;18.70;;;12.00;;
50309;SDS011;36207;51.850;21.698;2024-03-08T12:25:30;17.80;;;11.10;;
50309;SDS011;36207;51.850;21.698;2024-03-08T12:28:06;17.10;;;11.10;;
50309;SDS011;36207;51.850;21.698;2024-03-08T12:30:36;17.60;;;11.70;;
50309;SDS011;36207;51.850;21.698;2024-03-08T12:33:12;19.20;;;11.00;;
50309;SDS011;36207;51.850;21.698;2024-03-08T12:35:38;18.60;;;11.80;;
50309;SDS011;36207;51.850;21.698;2024-03-08T12:38:04;18.90;;;12.10;;
50309;SDS011;36207;51.850;21.698;2024-03-08T12:40:32;20.90;;;12.80;;
50309;SDS011;36207;51.850;21.698;2024-03-08T12:43:00;18.90;;;12.10;;
50309;SDS011;36207;51.850;21.698;2024-03-08T12:45:28;19.20;;;11.20;;
50309;SDS011;36207;51.850;21.698;2024-03-08T12:47:54;16.30;;;10.00;;
50309;SDS011;36207;51.850;21.698;2024-03-08T12:50:21;17.30;;;11.00;;
50309;SDS011;36207;51.850;21.698;2024-03-08T12:52:48;19.80;;;11.90;;
50309;SDS011;36207;51.850;21.698;2024-03-08T12:55:15;20.70;;;12.20;;
50309;SDS011;36207;51.850;21.698;2024-03-08T12:57:42;21.00;;;12.70;;
50309;SDS011;36207;51.850;21.698;2024-03-08T13:00:08;19.30;;;12.20;;
50309;SDS011;36207;51.850;21.698;2024-03-08T13:02:47;20.10;;;12.40;;
50309;SDS011;36207;51.850;21.698;2024-03-08T13:05:15;20.00;;;12.10;;
50309;SDS011;36207;51.850;21.698;2024-03-08T13:07:41;21.40;;;12.40;;
50309;SDS011;36207;51.850;21.698;2024-03-08T13:10:14;17.70;;;11.80;;
50309;SDS011;36207;51.850;21.698;2024-03-08T13:12:42;19.90;;;12.00;;
50309;SDS011;36207;51.850;21.698;2024-03-08T13:15:09;19.80;;;12.20;;
50309;SDS011;36207;51.850;21.698;2024-03-08T13:17:46;18.80;;;12.20;;
50309;SDS011;36207;51.850;21.698;2024-03-08T13:20:13;19.60;;;12.70;;
50309;SDS011;36207;51.850;21.698;2024-03-08T13:22:45;18.00;;;12.40;;
50309;SDS011;36207;51.850;21.698;2024-03-08T13:25:11;17.70;;;11.40;;
50309;SDS011;36207;51.850;21.698;2024-03-08T13:27:41;17.00;;;11.90;;
50309;SDS011;36207;51.850;21.698;2024-03-08T13:30:11;16.50;;;11.60;;
50309;SDS011;36207;51.850;21.698;2024-03-08T13:32:41;20.20;;;11.70;;
50309;SDS011;36207;51.850;21.698;2024-03-08T13:35:10;19.20;;;12.10;;
50309;SDS011;36207;51.850;21.698;2024-03-08T13:37:41;18.20;;;12.60;;
50309;SDS011;36207;51.850;21.698;2024-03-08T13:40:08;17.90;;;12.20;;
50309;SDS011;36207;51.850;21.698;2024-03-08T13:42:44;18.10;;;12.10;;
50309;SDS011;36207;51.850;21.698;2024-03-08T13:45:10;21.90;;;12.10;;
50309;SDS011;36207;51.850;21.698;2024-03-08T13:47:37;20.50;;;12.60;;
50309;SDS011;36207;51.850;21.698;2024-03-08T13:50:05;21.70;;;13.40;;
50309;SDS011;36207;51.850;21.698;2024-03-08T13:52:33;20.00;;;12.30;;
50309;SDS011;36207;51.850;21.698;2024-03-08T13:55:00;19.10;;;12.70;;
50309;SDS011;36207;51.850;21.698;2024-03-08T13:57:26;20.70;;;12.40;;
50309;SDS011;36207;51.850;21.698;2024-03-08T13:59:55;16.50;;;11.00;;
50309;SDS011;36207;51.850;21.698;2024-03-08T14:02:21;20.20;;;11.20;;
50309;SDS011;36207;51.850;21.698;2024-03-08T14:04:48;20.00;;;11.30;;
50309;SDS011;36207;51.850;21.698;2024-03-08T14:07:15;20.20;;;11.80;;
50309;SDS011;36207;51.850;21.698;2024-03-08T14:09:41;19.10;;;11.40;;
50309;SDS011;36207;51.850;21.698;2024-03-08T14:12:09;18.40;;;12.10;;
50309;SDS011;36207;51.850;21.698;2024-03-08T14:14:35;18.80;;;12.10;;
50309;SDS011;36207;51.850;21.698;2024-03-08T14:17:01;17.70;;;11.90;;
50309;SDS011;36207;51.850;21.698;2024-03-08T14:19:28;18.50;;;11.70;;
50309;SDS011;36207;51.850;21.698;2024-03-08T14:21:56;20.00;;;12.30;;
50309;SDS011;36207;51.850;21.698;2024-03-08T14:24:24;17.80;;;12.00;;
50309;SDS011;36207;51.850;21.698;2024-03-08T14:26:50;19.90;;;11.90;;
50309;SDS011;36207;51.850;21.698;2024-03-08T14:29:17;17.90;;;11.70;;